Impacts METAR Board INFO
IDs:

KMEM - Memphis Intl, TN, US

Updated at: 0916 UTC 20 Jan 2018
Potential Impact None Slight Moderate High
Time19/21Z 19/22Z 19/23Z 20/00Z 20/01Z 20/02Z 20/03Z 20/04Z 20/05Z 20/06Z 20/07Z 20/08Z 20/09Z
VIS10 10 10 10 10 10 10 10 10 10 10 10 10
CIG47 47 37 37 37 38 41 42 42 46 46 50 55
CoverOVCOVCOVCOVCOVCOVCOVCOVCOVCOVCOVCOVCOVC
FltCatVFRVFRVFRVFRVFRVFRVFRVFRVFRVFRVFRVFRVFR
WX--------------------------
WDir190180180180180190190190200200190190190
WSpd10 14 11 8 9 9 9 10 12 10 8 7 6
WGst-- -- -- -- -- -- -- -- -- 18 -- -- --
Raw hourly METARs
KMEM 192054Z 19010KT 10SM OVC047 06/M06 A3021 RMK AO2 SLP231 T00561061 56023 $
KMEM 192154Z 18014KT 10SM FEW037 OVC047 06/M07 A3020 RMK AO2 SLP227 T00561067 $
KMEM 192254Z 18011KT 10SM OVC037 04/M06 A3018 RMK AO2 SLP221 T00441061 $
KMEM 192354Z 18008KT 10SM OVC037 04/M07 A3017 RMK AO2 SLP217 T00441067 10061 20044 58014 $
KMEM 200054Z 18009KT 10SM SCT030 OVC037 05/M07 A3018 RMK AO2 SLP220 T00501072 $
KMEM 200154Z 19009KT 10SM FEW028 OVC038 05/M06 A3017 RMK AO2 SLP219 T00501061 $
KMEM 200254Z 19009KT 10SM OVC041 06/M07 A3017 RMK AO2 SLP217 T00561067 50000 $
KMEM 200354Z 19010KT 10SM OVC042 06/M07 A3017 RMK AO2 SLP218 T00611067 $
KMEM 200454Z 20012KT 10SM OVC042 07/M07 A3017 RMK AO2 SLP217 T00671067 $
KMEM 200554Z 20010G18KT 10SM OVC046 07/M07 A3017 RMK AO2 SLP217 T00671067 10067 20044 400671061 50000 $
KMEM 200654Z 19008KT 10SM OVC046 07/M06 A3017 RMK AO2 SLP216 T00671061 $
KMEM 200754Z 19007KT 10SM OVC050 08/M06 A3017 RMK AO2 SLP217 T00781061 $
KMEM 200854Z 19006KT 10SM OVC055 07/M05 A3017 RMK AO2 SLP218 T00671050 53002 $